sensor_id;sensor_type;location;lat;lon;timestamp;P1;durP1;ratioP1;P2;durP2;ratioP2
62894;SDS011;49204;44.916;37.998;2022-08-05T00:01:14;11.45;;;6.20;;
62894;SDS011;49204;44.916;37.998;2022-08-05T00:03:46;10.45;;;6.17;;
62894;SDS011;49204;44.916;37.998;2022-08-05T00:06:18;9.90;;;5.47;;
62894;SDS011;49204;44.916;37.998;2022-08-05T00:08:46;11.57;;;5.60;;
62894;SDS011;49204;44.916;37.998;2022-08-05T00:11:15;8.85;;;5.95;;
62894;SDS011;49204;44.916;37.998;2022-08-05T00:13:43;11.38;;;6.55;;
62894;SDS011;49204;44.916;37.998;2022-08-05T00:16:13;9.48;;;5.30;;
62894;SDS011;49204;44.916;37.998;2022-08-05T00:18:44;14.78;;;6.37;;
62894;SDS011;49204;44.916;37.998;2022-08-05T00:21:14;12.45;;;6.53;;
62894;SDS011;49204;44.916;37.998;2022-08-05T00:23:45;10.10;;;5.92;;
62894;SDS011;49204;44.916;37.998;2022-08-05T00:26:14;10.00;;;6.17;;
62894;SDS011;49204;44.916;37.998;2022-08-05T00:28:45;13.53;;;6.20;;
62894;SDS011;49204;44.916;37.998;2022-08-05T00:31:13;10.55;;;5.83;;
62894;SDS011;49204;44.916;37.998;2022-08-05T00:33:42;12.68;;;5.50;;
62894;SDS011;49204;44.916;37.998;2022-08-05T00:36:10;10.40;;;6.08;;
62894;SDS011;49204;44.916;37.998;2022-08-05T00:38:40;11.73;;;6.30;;
62894;SDS011;49204;44.916;37.998;2022-08-05T00:41:09;11.40;;;5.83;;
62894;SDS011;49204;44.916;37.998;2022-08-05T00:43:38;11.65;;;5.50;;
62894;SDS011;49204;44.916;37.998;2022-08-05T00:46:07;8.18;;;5.35;;
62894;SDS011;49204;44.916;37.998;2022-08-05T00:48:35;11.45;;;5.62;;
62894;SDS011;49204;44.916;37.998;2022-08-05T00:51:04;7.67;;;4.95;;
62894;SDS011;49204;44.916;37.998;2022-08-05T00:53:32;8.35;;;5.90;;
62894;SDS011;49204;44.916;37.998;2022-08-05T00:56:01;12.78;;;5.35;;
62894;SDS011;49204;44.916;37.998;2022-08-05T00:58:30;12.47;;;6.55;;
62894;SDS011;49204;44.916;37.998;2022-08-05T01:00:58;13.25;;;6.42;;
62894;SDS011;49204;44.916;37.998;2022-08-05T01:03:27;7.80;;;4.90;;
62894;SDS011;49204;44.916;37.998;2022-08-05T01:05:55;9.35;;;6.20;;
62894;SDS011;49204;44.916;37.998;2022-08-05T01:08:24;10.50;;;6.50;;
62894;SDS011;49204;44.916;37.998;2022-08-05T01:10:53;11.50;;;6.15;;
62894;SDS011;49204;44.916;37.998;2022-08-05T01:16:05;14.47;;;5.72;;
62894;SDS011;49204;44.916;37.998;2022-08-05T01:18:37;9.83;;;5.65;;
62894;SDS011;49204;44.916;37.998;2022-08-05T01:26:31;11.18;;;6.35;;
62894;SDS011;49204;44.916;37.998;2022-08-05T01:29:04;9.98;;;5.72;;
62894;SDS011;49204;44.916;37.998;2022-08-05T01:31:47;10.23;;;6.47;;
62894;SDS011;49204;44.916;37.998;2022-08-05T01:34:30;12.10;;;6.10;;
62894;SDS011;49204;44.916;37.998;2022-08-05T01:36:58;13.30;;;6.33;;
62894;SDS011;49204;44.916;37.998;2022-08-05T01:39:32;11.48;;;6.45;;
62894;SDS011;49204;44.916;37.998;2022-08-05T01:42:04;12.95;;;6.53;;
62894;SDS011;49204;44.916;37.998;2022-08-05T01:44:34;10.30;;;6.40;;
62894;SDS011;49204;44.916;37.998;2022-08-05T01:47:05;9.93;;;6.05;;
62894;SDS011;49204;44.916;37.998;2022-08-05T01:49:35;15.88;;;6.92;;
62894;SDS011;49204;44.916;37.998;2022-08-05T01:52:06;10.48;;;6.35;;
62894;SDS011;49204;44.916;37.998;2022-08-05T01:54:42;9.40;;;6.58;;
62894;SDS011;49204;44.916;37.998;2022-08-05T01:57:08;12.88;;;6.80;;
62894;SDS011;49204;44.916;37.998;2022-08-05T01:59:38;11.88;;;6.20;;
62894;SDS011;49204;44.916;37.998;2022-08-05T02:02:09;10.70;;;6.55;;
62894;SDS011;49204;44.916;37.998;2022-08-05T02:04:39;10.48;;;5.92;;
62894;SDS011;49204;44.916;37.998;2022-08-05T02:07:11;12.05;;;6.72;;
62894;SDS011;49204;44.916;37.998;2022-08-05T02:09:40;10.80;;;5.72;;
62894;SDS011;49204;44.916;37.998;2022-08-05T02:12:54;7.90;;;5.75;;
62894;SDS011;49204;44.916;37.998;2022-08-05T02:15:11;11.22;;;5.90;;
62894;SDS011;49204;44.916;37.998;2022-08-05T02:20:13;13.53;;;5.55;;
62894;SDS011;49204;44.916;37.998;2022-08-05T02:22:44;12.93;;;7.37;;
62894;SDS011;49204;44.916;37.998;2022-08-05T02:25:21;9.28;;;5.70;;
62894;SDS011;49204;44.916;37.998;2022-08-05T02:27:54;10.35;;;5.58;;
62894;SDS011;49204;44.916;37.998;2022-08-05T02:30:24;12.60;;;6.78;;
62894;SDS011;49204;44.916;37.998;2022-08-05T02:32:55;9.78;;;5.78;;
62894;SDS011;49204;44.916;37.998;2022-08-05T02:35:26;9.60;;;5.90;;
62894;SDS011;49204;44.916;37.998;2022-08-05T02:37:56;8.30;;;5.65;;
62894;SDS011;49204;44.916;37.998;2022-08-05T02:40:27;11.65;;;6.10;;
62894;SDS011;49204;44.916;37.998;2022-08-05T02:42:57;8.83;;;4.65;;
62894;SDS011;49204;44.916;37.998;2022-08-05T02:45:27;9.78;;;5.72;;
62894;SDS011;49204;44.916;37.998;2022-08-05T02:47:59;10.50;;;5.75;;
62894;SDS011;49204;44.916;37.998;2022-08-05T02:50:29;10.05;;;4.58;;
62894;SDS011;49204;44.916;37.998;2022-08-05T02:52:58;9.88;;;4.70;;
62894;SDS011;49204;44.916;37.998;2022-08-05T02:55:29;11.08;;;6.00;;
62894;SDS011;49204;44.916;37.998;2022-08-05T02:57:59;8.98;;;5.80;;
62894;SDS011;49204;44.916;37.998;2022-08-05T03:00:29;9.55;;;5.05;;
62894;SDS011;49204;44.916;37.998;2022-08-05T03:02:59;7.42;;;4.95;;
62894;SDS011;49204;44.916;37.998;2022-08-05T03:05:30;7.25;;;5.17;;
62894;SDS011;49204;44.916;37.998;2022-08-05T03:07:59;8.70;;;5.30;;
62894;SDS011;49204;44.916;37.998;2022-08-05T03:10:28;9.95;;;5.28;;
62894;SDS011;49204;44.916;37.998;2022-08-05T03:12:57;6.78;;;4.95;;
62894;SDS011;49204;44.916;37.998;2022-08-05T03:15:26;8.05;;;4.62;;
62894;SDS011;49204;44.916;37.998;2022-08-05T03:17:54;8.40;;;5.08;;
62894;SDS011;49204;44.916;37.998;2022-08-05T03:20:23;9.23;;;5.35;;
62894;SDS011;49204;44.916;37.998;2022-08-05T03:22:52;8.40;;;4.90;;
62894;SDS011;49204;44.916;37.998;2022-08-05T03:25:22;7.85;;;4.90;;
62894;SDS011;49204;44.916;37.998;2022-08-05T03:27:52;10.48;;;4.42;;
62894;SDS011;49204;44.916;37.998;2022-08-05T03:30:22;10.82;;;5.22;;
62894;SDS011;49204;44.916;37.998;2022-08-05T03:32:52;7.75;;;4.47;;
62894;SDS011;49204;44.916;37.998;2022-08-05T03:35:21;8.73;;;5.03;;
62894;SDS011;49204;44.916;37.998;2022-08-05T03:37:50;8.85;;;4.85;;
62894;SDS011;49204;44.916;37.998;2022-08-05T03:40:20;5.47;;;3.62;;
62894;SDS011;49204;44.916;37.998;2022-08-05T03:42:48;6.60;;;4.20;;
62894;SDS011;49204;44.916;37.998;2022-08-05T03:45:17;8.28;;;4.80;;
62894;SDS011;49204;44.916;37.998;2022-08-05T03:47:46;11.93;;;4.40;;
62894;SDS011;49204;44.916;37.998;2022-08-05T03:50:15;8.03;;;4.62;;
62894;SDS011;49204;44.916;37.998;2022-08-05T03:52:49;6.58;;;4.30;;
62894;SDS011;49204;44.916;37.998;2022-08-05T03:55:22;11.88;;;4.12;;
62894;SDS011;49204;44.916;37.998;2022-08-05T03:57:51;7.95;;;4.50;;
62894;SDS011;49204;44.916;37.998;2022-08-05T04:00:22;6.55;;;4.33;;
62894;SDS011;49204;44.916;37.998;2022-08-05T04:02:53;11.33;;;4.62;;
62894;SDS011;49204;44.916;37.998;2022-08-05T04:05:28;10.40;;;4.58;;
62894;SDS011;49204;44.916;37.998;2022-08-05T04:08:05;6.75;;;4.28;;
62894;SDS011;49204;44.916;37.998;2022-08-05T04:10:30;6.45;;;4.30;;
62894;SDS011;49204;44.916;37.998;2022-08-05T04:13:00;9.65;;;4.65;;
62894;SDS011;49204;44.916;37.998;2022-08-05T04:15:30;5.58;;;4.05;;
62894;SDS011;49204;44.916;37.998;2022-08-05T04:18:05;7.42;;;4.22;;
62894;SDS011;49204;44.916;37.998;2022-08-05T04:20:34;7.10;;;3.83;;
62894;SDS011;49204;44.916;37.998;2022-08-05T04:23:03;6.60;;;3.42;;
62894;SDS011;49204;44.916;37.998;2022-08-05T04:25:31;6.58;;;4.25;;
62894;SDS011;49204;44.916;37.998;2022-08-05T04:28:00;6.85;;;4.08;;
62894;SDS011;49204;44.916;37.998;2022-08-05T04:30:29;7.95;;;4.90;;
62894;SDS011;49204;44.916;37.998;2022-08-05T04:32:57;7.65;;;4.65;;
62894;SDS011;49204;44.916;37.998;2022-08-05T04:35:26;7.25;;;4.00;;
62894;SDS011;49204;44.916;37.998;2022-08-05T04:37:55;9.18;;;4.08;;
62894;SDS011;49204;44.916;37.998;2022-08-05T04:40:23;6.92;;;4.20;;
62894;SDS011;49204;44.916;37.998;2022-08-05T04:42:52;11.68;;;4.45;;
62894;SDS011;49204;44.916;37.998;2022-08-05T04:45:20;9.95;;;4.60;;
62894;SDS011;49204;44.916;37.998;2022-08-05T04:47:50;6.75;;;3.98;;
62894;SDS011;49204;44.916;37.998;2022-08-05T04:50:19;7.00;;;3.80;;
62894;SDS011;49204;44.916;37.998;2022-08-05T04:52:48;9.55;;;3.58;;
62894;SDS011;49204;44.916;37.998;2022-08-05T04:55:16;6.85;;;4.37;;
62894;SDS011;49204;44.916;37.998;2022-08-05T04:57:45;6.70;;;3.60;;
62894;SDS011;49204;44.916;37.998;2022-08-05T05:00:14;5.97;;;3.80;;
62894;SDS011;49204;44.916;37.998;2022-08-05T05:02:43;9.53;;;4.17;;
62894;SDS011;49204;44.916;37.998;2022-08-05T05:05:11;6.22;;;3.80;;
62894;SDS011;49204;44.916;37.998;2022-08-05T05:07:40;10.20;;;3.98;;
62894;SDS011;49204;44.916;37.998;2022-08-05T05:10:08;9.48;;;3.95;;
62894;SDS011;49204;44.916;37.998;2022-08-05T05:12:37;5.87;;;3.95;;
62894;SDS011;49204;44.916;37.998;2022-08-05T05:15:06;5.78;;;4.05;;
62894;SDS011;49204;44.916;37.998;2022-08-05T05:17:36;6.75;;;4.03;;
62894;SDS011;49204;44.916;37.998;2022-08-05T05:20:10;10.18;;;4.22;;
62894;SDS011;49204;44.916;37.998;2022-08-05T05:22:40;5.92;;;3.60;;
62894;SDS011;49204;44.916;37.998;2022-08-05T05:25:08;4.92;;;3.47;;
62894;SDS011;49204;44.916;37.998;2022-08-05T05:27:38;5.90;;;3.85;;
62894;SDS011;49204;44.916;37.998;2022-08-05T05:30:07;8.05;;;4.12;;
62894;SDS011;49204;44.916;37.998;2022-08-05T05:32:36;8.35;;;3.85;;
62894;SDS011;49204;44.916;37.998;2022-08-05T05:35:05;8.30;;;4.20;;
62894;SDS011;49204;44.916;37.998;2022-08-05T05:37:37;4.83;;;3.37;;
62894;SDS011;49204;44.916;37.998;2022-08-05T05:40:17;6.05;;;3.47;;
62894;SDS011;49204;44.916;37.998;2022-08-05T05:42:48;5.62;;;3.52;;
62894;SDS011;49204;44.916;37.998;2022-08-05T05:45:18;7.53;;;2.98;;
62894;SDS011;49204;44.916;37.998;2022-08-05T05:47:47;5.00;;;3.52;;
62894;SDS011;49204;44.916;37.998;2022-08-05T05:50:16;5.78;;;3.60;;
62894;SDS011;49204;44.916;37.998;2022-08-05T05:52:46;4.28;;;3.33;;
62894;SDS011;49204;44.916;37.998;2022-08-05T05:55:15;7.67;;;3.45;;
62894;SDS011;49204;44.916;37.998;2022-08-05T05:57:45;5.35;;;3.30;;
62894;SDS011;49204;44.916;37.998;2022-08-05T06:00:15;6.50;;;3.77;;
62894;SDS011;49204;44.916;37.998;2022-08-05T06:02:45;8.60;;;3.67;;
62894;SDS011;49204;44.916;37.998;2022-08-05T06:05:14;4.50;;;3.47;;
62894;SDS011;49204;44.916;37.998;2022-08-05T06:07:44;6.00;;;3.70;;
62894;SDS011;49204;44.916;37.998;2022-08-05T06:10:15;5.37;;;3.40;;
62894;SDS011;49204;44.916;37.998;2022-08-05T06:12:43;4.28;;;3.20;;
62894;SDS011;49204;44.916;37.998;2022-08-05T06:15:12;5.80;;;3.92;;
62894;SDS011;49204;44.916;37.998;2022-08-05T06:17:40;8.45;;;3.55;;
62894;SDS011;49204;44.916;37.998;2022-08-05T06:20:09;3.87;;;3.40;;
62894;SDS011;49204;44.916;37.998;2022-08-05T06:22:38;5.65;;;3.33;;
62894;SDS011;49204;44.916;37.998;2022-08-05T06:25:07;6.08;;;4.05;;
62894;SDS011;49204;44.916;37.998;2022-08-05T06:27:36;5.00;;;3.47;;
62894;SDS011;49204;44.916;37.998;2022-08-05T06:30:05;5.40;;;3.60;;
62894;SDS011;49204;44.916;37.998;2022-08-05T06:32:36;5.95;;;3.83;;
62894;SDS011;49204;44.916;37.998;2022-08-05T06:35:04;6.83;;;4.25;;
62894;SDS011;49204;44.916;37.998;2022-08-05T06:37:33;6.22;;;4.05;;
62894;SDS011;49204;44.916;37.998;2022-08-05T06:40:02;5.62;;;3.42;;
62894;SDS011;49204;44.916;37.998;2022-08-05T06:42:32;5.40;;;3.60;;
62894;SDS011;49204;44.916;37.998;2022-08-05T06:45:00;5.33;;;3.15;;
62894;SDS011;49204;44.916;37.998;2022-08-05T06:47:29;7.00;;;3.52;;
62894;SDS011;49204;44.916;37.998;2022-08-05T06:49:58;5.10;;;3.35;;
62894;SDS011;49204;44.916;37.998;2022-08-05T06:52:26;6.87;;;3.70;;
62894;SDS011;49204;44.916;37.998;2022-08-05T06:54:55;4.75;;;3.98;;
62894;SDS011;49204;44.916;37.998;2022-08-05T06:57:24;4.47;;;3.58;;
62894;SDS011;49204;44.916;37.998;2022-08-05T06:59:52;5.72;;;4.17;;
62894;SDS011;49204;44.916;37.998;2022-08-05T07:02:21;6.08;;;3.35;;
62894;SDS011;49204;44.916;37.998;2022-08-05T07:04:49;5.70;;;3.90;;
62894;SDS011;49204;44.916;37.998;2022-08-05T07:07:18;6.75;;;4.00;;
62894;SDS011;49204;44.916;37.998;2022-08-05T07:09:47;9.65;;;4.15;;
62894;SDS011;49204;44.916;37.998;2022-08-05T07:12:15;6.47;;;3.65;;
62894;SDS011;49204;44.916;37.998;2022-08-05T07:15:02;6.33;;;4.35;;
62894;SDS011;49204;44.916;37.998;2022-08-05T07:17:32;4.55;;;3.67;;
62894;SDS011;49204;44.916;37.998;2022-08-05T07:20:00;5.67;;;3.70;;
62894;SDS011;49204;44.916;37.998;2022-08-05T07:22:29;7.60;;;4.45;;
62894;SDS011;49204;44.916;37.998;2022-08-05T07:24:58;5.83;;;4.28;;
62894;SDS011;49204;44.916;37.998;2022-08-05T07:27:28;9.80;;;4.75;;
62894;SDS011;49204;44.916;37.998;2022-08-05T07:29:58;5.00;;;3.37;;
62894;SDS011;49204;44.916;37.998;2022-08-05T07:32:26;5.95;;;4.10;;
62894;SDS011;49204;44.916;37.998;2022-08-05T07:34:55;11.70;;;4.55;;
62894;SDS011;49204;44.916;37.998;2022-08-05T07:37:23;7.53;;;3.98;;
62894;SDS011;49204;44.916;37.998;2022-08-05T07:39:52;8.35;;;4.17;;
62894;SDS011;49204;44.916;37.998;2022-08-05T07:42:20;9.10;;;4.53;;
62894;SDS011;49204;44.916;37.998;2022-08-05T07:44:49;6.22;;;4.22;;
62894;SDS011;49204;44.916;37.998;2022-08-05T07:47:17;9.68;;;4.08;;
62894;SDS011;49204;44.916;37.998;2022-08-05T07:49:46;6.90;;;4.03;;
62894;SDS011;49204;44.916;37.998;2022-08-05T07:52:17;7.22;;;4.17;;
62894;SDS011;49204;44.916;37.998;2022-08-05T07:54:47;5.22;;;3.87;;
62894;SDS011;49204;44.916;37.998;2022-08-05T07:57:15;6.03;;;4.45;;
62894;SDS011;49204;44.916;37.998;2022-08-05T07:59:44;8.48;;;3.42;;
62894;SDS011;49204;44.916;37.998;2022-08-05T08:02:12;8.38;;;4.40;;
62894;SDS011;49204;44.916;37.998;2022-08-05T08:04:41;15.53;;;4.35;;
62894;SDS011;49204;44.916;37.998;2022-08-05T08:07:10;3.75;;;3.35;;
62894;SDS011;49204;44.916;37.998;2022-08-05T08:09:39;6.22;;;4.70;;
62894;SDS011;49204;44.916;37.998;2022-08-05T08:12:07;5.65;;;3.70;;
62894;SDS011;49204;44.916;37.998;2022-08-05T08:14:36;4.67;;;3.80;;
62894;SDS011;49204;44.916;37.998;2022-08-05T08:17:05;8.13;;;4.03;;
62894;SDS011;49204;44.916;37.998;2022-08-05T08:19:37;6.03;;;4.00;;
62894;SDS011;49204;44.916;37.998;2022-08-05T08:22:07;4.42;;;3.60;;
62894;SDS011;49204;44.916;37.998;2022-08-05T08:24:36;6.22;;;3.75;;
62894;SDS011;49204;44.916;37.998;2022-08-05T08:27:06;11.12;;;4.28;;
62894;SDS011;49204;44.916;37.998;2022-08-05T08:29:34;9.03;;;4.17;;
62894;SDS011;49204;44.916;37.998;2022-08-05T08:32:03;6.67;;;4.35;;
62894;SDS011;49204;44.916;37.998;2022-08-05T08:34:32;13.70;;;5.12;;
62894;SDS011;49204;44.916;37.998;2022-08-05T08:37:00;6.00;;;3.67;;
62894;SDS011;49204;44.916;37.998;2022-08-05T08:39:29;8.40;;;3.40;;
62894;SDS011;49204;44.916;37.998;2022-08-05T08:41:58;5.65;;;4.10;;
62894;SDS011;49204;44.916;37.998;2022-08-05T08:44:28;5.50;;;3.35;;
62894;SDS011;49204;44.916;37.998;2022-08-05T08:46:58;4.92;;;3.37;;
62894;SDS011;49204;44.916;37.998;2022-08-05T08:49:29;5.10;;;3.75;;
62894;SDS011;49204;44.916;37.998;2022-08-05T08:52:02;10.55;;;3.55;;
62894;SDS011;49204;44.916;37.998;2022-08-05T08:57:00;5.55;;;3.50;;
62894;SDS011;49204;44.916;37.998;2022-08-05T08:59:29;4.85;;;3.30;;
62894;SDS011;49204;44.916;37.998;2022-08-05T09:01:58;6.75;;;3.52;;
62894;SDS011;49204;44.916;37.998;2022-08-05T09:04:28;7.50;;;3.77;;
62894;SDS011;49204;44.916;37.998;2022-08-05T09:06:57;4.92;;;3.27;;
62894;SDS011;49204;44.916;37.998;2022-08-05T09:09:26;9.25;;;3.55;;
62894;SDS011;49204;44.916;37.998;2022-08-05T09:11:54;7.17;;;3.50;;
62894;SDS011;49204;44.916;37.998;2022-08-05T09:14:23;5.20;;;3.87;;
62894;SDS011;49204;44.916;37.998;2022-08-05T09:16:52;4.70;;;3.45;;
62894;SDS011;49204;44.916;37.998;2022-08-05T09:19:21;4.37;;;3.45;;
62894;SDS011;49204;44.916;37.998;2022-08-05T09:21:50;7.03;;;3.90;;
62894;SDS011;49204;44.916;37.998;2022-08-05T09:24:19;7.05;;;3.70;;
62894;SDS011;49204;44.916;37.998;2022-08-05T09:26:51;7.35;;;3.40;;
62894;SDS011;49204;44.916;37.998;2022-08-05T09:58:39;5.83;;;3.22;;
62894;SDS011;49204;44.916;37.998;2022-08-05T10:01:10;4.03;;;3.60;;
62894;SDS011;49204;44.916;37.998;2022-08-05T10:03:39;4.53;;;3.30;;
62894;SDS011;49204;44.916;37.998;2022-08-05T10:06:25;6.17;;;3.67;;
62894;SDS011;49204;44.916;37.998;2022-08-05T10:08:54;9.20;;;3.50;;
62894;SDS011;49204;44.916;37.998;2022-08-05T10:11:24;8.88;;;3.62;;
62894;SDS011;49204;44.916;37.998;2022-08-05T10:13:52;4.67;;;3.00;;
62894;SDS011;49204;44.916;37.998;2022-08-05T10:16:36;4.72;;;3.40;;
62894;SDS011;49204;44.916;37.998;2022-08-05T10:19:01;4.33;;;3.30;;
62894;SDS011;49204;44.916;37.998;2022-08-05T10:21:30;4.53;;;3.40;;
62894;SDS011;49204;44.916;37.998;2022-08-05T10:23:58;6.70;;;4.05;;
62894;SDS011;49204;44.916;37.998;2022-08-05T10:26:27;4.47;;;3.30;;
62894;SDS011;49204;44.916;37.998;2022-08-05T10:28:56;8.03;;;3.20;;
62894;SDS011;49204;44.916;37.998;2022-08-05T10:31:25;5.40;;;3.58;;
62894;SDS011;49204;44.916;37.998;2022-08-05T10:33:54;4.83;;;3.25;;
62894;SDS011;49204;44.916;37.998;2022-08-05T10:36:23;6.15;;;3.33;;
62894;SDS011;49204;44.916;37.998;2022-08-05T10:38:58;5.97;;;3.67;;
62894;SDS011;49204;44.916;37.998;2022-08-05T10:41:29;5.90;;;3.12;;
62894;SDS011;49204;44.916;37.998;2022-08-05T10:44:05;5.03;;;3.02;;
62894;SDS011;49204;44.916;37.998;2022-08-05T10:46:43;6.17;;;3.75;;
62894;SDS011;49204;44.916;37.998;2022-08-05T10:49:13;4.20;;;3.65;;
62894;SDS011;49204;44.916;37.998;2022-08-05T10:51:46;6.10;;;3.42;;
62894;SDS011;49204;44.916;37.998;2022-08-05T10:54:16;6.42;;;3.35;;
62894;SDS011;49204;44.916;37.998;2022-08-05T10:56:45;3.17;;;2.85;;
62894;SDS011;49204;44.916;37.998;2022-08-05T10:59:25;4.42;;;3.50;;
62894;SDS011;49204;44.916;37.998;2022-08-05T11:01:46;5.40;;;3.17;;
62894;SDS011;49204;44.916;37.998;2022-08-05T11:04:15;6.80;;;3.62;;
62894;SDS011;49204;44.916;37.998;2022-08-05T11:09:27;5.80;;;2.83;;
62894;SDS011;49204;44.916;37.998;2022-08-05T11:15:16;5.83;;;3.30;;
62894;SDS011;49204;44.916;37.998;2022-08-05T11:18:21;3.72;;;2.95;;
62894;SDS011;49204;44.916;37.998;2022-08-05T11:20:48;6.55;;;3.52;;
62894;SDS011;49204;44.916;37.998;2022-08-05T11:53:09;5.40;;;4.00;;
62894;SDS011;49204;44.916;37.998;2022-08-05T11:55:51;4.53;;;3.80;;
62894;SDS011;49204;44.916;37.998;2022-08-05T11:58:30;7.35;;;4.17;;
62894;SDS011;49204;44.916;37.998;2022-08-05T12:01:10;5.03;;;4.17;;
62894;SDS011;49204;44.916;37.998;2022-08-05T12:06:19;5.50;;;3.92;;
62894;SDS011;49204;44.916;37.998;2022-08-05T12:08:51;7.20;;;4.17;;
62894;SDS011;49204;44.916;37.998;2022-08-05T12:11:25;11.53;;;4.80;;
62894;SDS011;49204;44.916;37.998;2022-08-05T12:14:06;11.85;;;5.10;;
62894;SDS011;49204;44.916;37.998;2022-08-05T12:16:44;6.58;;;4.45;;
62894;SDS011;49204;44.916;37.998;2022-08-05T12:19:13;6.72;;;4.95;;
62894;SDS011;49204;44.916;37.998;2022-08-05T12:21:47;7.58;;;4.65;;
62894;SDS011;49204;44.916;37.998;2022-08-05T12:24:19;9.88;;;4.92;;
62894;SDS011;49204;44.916;37.998;2022-08-05T12:26:50;8.60;;;4.75;;
62894;SDS011;49204;44.916;37.998;2022-08-05T12:29:21;10.20;;;5.05;;
62894;SDS011;49204;44.916;37.998;2022-08-05T12:31:51;6.35;;;4.28;;
62894;SDS011;49204;44.916;37.998;2022-08-05T12:34:27;8.83;;;4.85;;
62894;SDS011;49204;44.916;37.998;2022-08-05T12:36:54;9.05;;;3.95;;
62894;SDS011;49204;44.916;37.998;2022-08-05T12:39:28;6.80;;;4.12;;
62894;SDS011;49204;44.916;37.998;2022-08-05T12:41:59;7.05;;;4.20;;
62894;SDS011;49204;44.916;37.998;2022-08-05T12:44:28;8.33;;;3.50;;
62894;SDS011;49204;44.916;37.998;2022-08-05T12:46:57;6.45;;;3.72;;
62894;SDS011;49204;44.916;37.998;2022-08-05T12:49:25;8.40;;;3.87;;
62894;SDS011;49204;44.916;37.998;2022-08-05T12:52:13;8.53;;;3.87;;
62894;SDS011;49204;44.916;37.998;2022-08-05T12:54:44;8.28;;;3.80;;
62894;SDS011;49204;44.916;37.998;2022-08-05T12:57:17;8.28;;;4.58;;
62894;SDS011;49204;44.916;37.998;2022-08-05T12:59:47;5.87;;;3.77;;
62894;SDS011;49204;44.916;37.998;2022-08-05T13:02:21;7.10;;;4.08;;
62894;SDS011;49204;44.916;37.998;2022-08-05T13:04:54;8.70;;;4.47;;
62894;SDS011;49204;44.916;37.998;2022-08-05T13:07:24;5.50;;;3.77;;
62894;SDS011;49204;44.916;37.998;2022-08-05T13:09:54;7.10;;;4.28;;
62894;SDS011;49204;44.916;37.998;2022-08-05T13:12:27;6.58;;;4.12;;
62894;SDS011;49204;44.916;37.998;2022-08-05T13:14:56;8.10;;;4.12;;
62894;SDS011;49204;44.916;37.998;2022-08-05T13:17:27;6.80;;;3.92;;
62894;SDS011;49204;44.916;37.998;2022-08-05T13:22:47;7.50;;;3.92;;
62894;SDS011;49204;44.916;37.998;2022-08-05T13:25:18;6.78;;;4.15;;
62894;SDS011;49204;44.916;37.998;2022-08-05T13:27:48;6.67;;;4.10;;
62894;SDS011;49204;44.916;37.998;2022-08-05T13:30:19;7.33;;;3.58;;
62894;SDS011;49204;44.916;37.998;2022-08-05T13:32:52;14.30;;;3.83;;
62894;SDS011;49204;44.916;37.998;2022-08-05T13:35:20;5.85;;;4.28;;
62894;SDS011;49204;44.916;37.998;2022-08-05T13:37:52;5.58;;;4.30;;
62894;SDS011;49204;44.916;37.998;2022-08-05T13:40:20;8.43;;;4.45;;
62894;SDS011;49204;44.916;37.998;2022-08-05T13:42:49;8.45;;;4.03;;
62894;SDS011;49204;44.916;37.998;2022-08-05T13:45:18;9.80;;;4.47;;
62894;SDS011;49204;44.916;37.998;2022-08-05T13:47:46;8.00;;;4.20;;
62894;SDS011;49204;44.916;37.998;2022-08-05T13:50:15;10.98;;;3.77;;
62894;SDS011;49204;44.916;37.998;2022-08-05T13:52:43;8.20;;;4.37;;
62894;SDS011;49204;44.916;37.998;2022-08-05T13:55:12;8.48;;;4.12;;
62894;SDS011;49204;44.916;37.998;2022-08-05T13:57:40;7.10;;;4.17;;
62894;SDS011;49204;44.916;37.998;2022-08-05T14:00:10;7.28;;;4.50;;
62894;SDS011;49204;44.916;37.998;2022-08-05T14:02:39;11.33;;;4.17;;
62894;SDS011;49204;44.916;37.998;2022-08-05T14:05:07;7.05;;;4.03;;
62894;SDS011;49204;44.916;37.998;2022-08-05T14:07:37;7.22;;;3.77;;
62894;SDS011;49204;44.916;37.998;2022-08-05T14:10:09;4.70;;;2.93;;
62894;SDS011;49204;44.916;37.998;2022-08-05T14:12:40;4.60;;;2.92;;
62894;SDS011;49204;44.916;37.998;2022-08-05T14:15:10;9.78;;;3.80;;
62894;SDS011;49204;44.916;37.998;2022-08-05T14:17:39;10.10;;;3.98;;
62894;SDS011;49204;44.916;37.998;2022-08-05T14:20:08;9.30;;;4.10;;
62894;SDS011;49204;44.916;37.998;2022-08-05T14:22:39;4.97;;;3.67;;
62894;SDS011;49204;44.916;37.998;2022-08-05T14:25:11;6.87;;;4.35;;
62894;SDS011;49204;44.916;37.998;2022-08-05T14:27:58;9.28;;;5.08;;
62894;SDS011;49204;44.916;37.998;2022-08-05T14:30:27;7.72;;;4.30;;
62894;SDS011;49204;44.916;37.998;2022-08-05T14:32:56;6.08;;;3.50;;
62894;SDS011;49204;44.916;37.998;2022-08-05T14:35:25;6.00;;;3.27;;
62894;SDS011;49204;44.916;37.998;2022-08-05T14:37:53;12.65;;;6.28;;
62894;SDS011;49204;44.916;37.998;2022-08-05T14:40:22;5.67;;;3.33;;
62894;SDS011;49204;44.916;37.998;2022-08-05T14:42:51;7.97;;;4.03;;
62894;SDS011;49204;44.916;37.998;2022-08-05T14:45:19;6.85;;;3.40;;
62894;SDS011;49204;44.916;37.998;2022-08-05T14:47:48;7.20;;;3.02;;
62894;SDS011;49204;44.916;37.998;2022-08-05T14:50:17;8.05;;;3.50;;
62894;SDS011;49204;44.916;37.998;2022-08-05T14:52:46;12.95;;;3.40;;
62894;SDS011;49204;44.916;37.998;2022-08-05T14:55:14;7.70;;;3.58;;
62894;SDS011;49204;44.916;37.998;2022-08-05T14:57:43;5.85;;;3.50;;
62894;SDS011;49204;44.916;37.998;2022-08-05T15:00:12;6.85;;;3.22;;
62894;SDS011;49204;44.916;37.998;2022-08-05T15:02:41;5.85;;;3.52;;
62894;SDS011;49204;44.916;37.998;2022-08-05T15:05:10;5.78;;;3.08;;
62894;SDS011;49204;44.916;37.998;2022-08-05T15:07:39;5.50;;;2.45;;
62894;SDS011;49204;44.916;37.998;2022-08-05T15:10:08;3.37;;;2.33;;
62894;SDS011;49204;44.916;37.998;2022-08-05T15:12:37;6.08;;;2.47;;
62894;SDS011;49204;44.916;37.998;2022-08-05T15:15:06;7.75;;;2.98;;
62894;SDS011;49204;44.916;37.998;2022-08-05T15:17:36;3.95;;;2.83;;
62894;SDS011;49204;44.916;37.998;2022-08-05T15:20:05;6.47;;;3.17;;
62894;SDS011;49204;44.916;37.998;2022-08-05T15:22:36;8.88;;;2.83;;
62894;SDS011;49204;44.916;37.998;2022-08-05T15:25:05;4.08;;;2.87;;
62894;SDS011;49204;44.916;37.998;2022-08-05T15:27:34;9.25;;;3.22;;
62894;SDS011;49204;44.916;37.998;2022-08-05T15:30:04;6.22;;;3.22;;
62894;SDS011;49204;44.916;37.998;2022-08-05T15:32:33;5.17;;;3.30;;
62894;SDS011;49204;44.916;37.998;2022-08-05T15:35:02;6.12;;;3.17;;
62894;SDS011;49204;44.916;37.998;2022-08-05T15:37:31;10.40;;;3.80;;
62894;SDS011;49204;44.916;37.998;2022-08-05T15:40:00;9.65;;;3.22;;
62894;SDS011;49204;44.916;37.998;2022-08-05T15:42:28;4.83;;;2.83;;
62894;SDS011;49204;44.916;37.998;2022-08-05T15:44:58;5.67;;;2.90;;
62894;SDS011;49204;44.916;37.998;2022-08-05T15:47:27;5.20;;;3.20;;
62894;SDS011;49204;44.916;37.998;2022-08-05T15:49:56;3.98;;;2.95;;
62894;SDS011;49204;44.916;37.998;2022-08-05T15:52:25;7.42;;;3.58;;
62894;SDS011;49204;44.916;37.998;2022-08-05T15:54:53;11.12;;;5.50;;
62894;SDS011;49204;44.916;37.998;2022-08-05T15:57:22;8.40;;;3.47;;
62894;SDS011;49204;44.916;37.998;2022-08-05T15:59:50;7.05;;;3.37;;
62894;SDS011;49204;44.916;37.998;2022-08-05T16:02:19;6.67;;;3.40;;
62894;SDS011;49204;44.916;37.998;2022-08-05T16:04:48;5.95;;;3.70;;
62894;SDS011;49204;44.916;37.998;2022-08-05T16:07:18;8.18;;;4.15;;
62894;SDS011;49204;44.916;37.998;2022-08-05T16:09:51;8.78;;;4.45;;
62894;SDS011;49204;44.916;37.998;2022-08-05T16:12:19;11.45;;;5.42;;